createdAt,value
2023-03-21T00:01:53.970Z,78.90
2023-03-21T00:04:23.133Z,66.30
2023-03-21T00:06:51.007Z,55.70
2023-03-21T00:09:18.700Z,53.10
2023-03-21T00:11:46.010Z,53.60
2023-03-21T00:14:20.523Z,52.40
2023-03-21T00:16:52.238Z,51.80
2023-03-21T00:19:26.714Z,49.10
2023-03-21T00:22:07.030Z,49.00
2023-03-21T00:24:37.242Z,45.40
2023-03-21T00:29:52.803Z,22.30
2023-03-21T00:32:21.729Z,20.50
2023-03-21T00:35:38.394Z,22.10
2023-03-21T00:37:37.463Z,17.70
2023-03-21T00:40:16.209Z,17.20
2023-03-21T00:42:50.219Z,22.20
2023-03-21T00:45:19.685Z,17.80
2023-03-21T00:47:46.632Z,16.20
2023-03-21T00:50:14.336Z,16.30
2023-03-21T00:52:41.713Z,12.00
2023-03-21T00:55:14.597Z,12.70
2023-03-21T00:57:43.590Z,11.20
2023-03-21T01:00:12.653Z,11.60
2023-03-21T01:03:02.623Z,9.50
2023-03-21T01:05:53.862Z,9.30
2023-03-21T01:08:29.311Z,10.40
2023-03-21T01:11:03.604Z,11.10
2023-03-21T01:13:31.854Z,12.60
2023-03-21T01:16:00.262Z,10.90
2023-03-21T01:18:30.186Z,11.50
2023-03-21T01:20:59.925Z,15.50
2023-03-21T01:23:29.326Z,14.90
2023-03-21T01:25:57.652Z,14.10
2023-03-21T01:28:28.269Z,15.90
2023-03-21T01:30:55.807Z,23.50
2023-03-21T01:33:23.573Z,24.70
2023-03-21T01:36:00.157Z,19.30
2023-03-21T01:38:33.431Z,19.10
2023-03-21T01:41:14.160Z,13.90
2023-03-21T01:43:46.297Z,15.50
2023-03-21T01:46:49.347Z,17.20
2023-03-21T01:49:35.297Z,12.30
2023-03-21T01:52:13.049Z,21.90
2023-03-21T01:54:43.734Z,17.00
2023-03-21T01:57:16.986Z,20.30
2023-03-21T01:59:50.573Z,26.40
2023-03-21T02:02:24.561Z,22.40
2023-03-21T02:04:56.300Z,18.30
2023-03-21T02:07:35.903Z,21.40
2023-03-21T02:10:07.418Z,19.20
2023-03-21T02:12:34.453Z,31.60
2023-03-21T02:15:01.351Z,20.10
2023-03-21T02:17:43.619Z,18.50
2023-03-21T02:20:35.457Z,18.60
2023-03-21T02:23:21.227Z,17.30
2023-03-21T02:26:00.566Z,18.60
2023-03-21T02:28:40.108Z,13.70
2023-03-21T02:31:23.450Z,19.40
2023-03-21T02:33:50.177Z,17.20
2023-03-21T02:36:29.143Z,16.30
2023-03-21T02:39:14.890Z,15.40
2023-03-21T02:41:59.539Z,28.40
2023-03-21T02:44:45.422Z,20.60
2023-03-21T02:47:19.946Z,19.80
2023-03-21T02:49:54.937Z,15.50
2023-03-21T02:52:37.849Z,13.10
2023-03-21T02:55:14.501Z,14.40
2023-03-21T02:57:45.351Z,14.40
2023-03-21T03:00:19.351Z,13.90
2023-03-21T03:02:47.543Z,15.70
2023-03-21T03:05:22.341Z,17.00
2023-03-21T03:08:08.104Z,23.40
2023-03-21T03:11:09.181Z,23.40
2023-03-21T03:14:35.661Z,16.50
2023-03-21T03:17:31.116Z,14.00
2023-03-21T03:21:04.411Z,15.10
2023-03-21T03:23:44.150Z,12.90
2023-03-21T03:26:38.453Z,14.90
2023-03-21T03:29:16.218Z,18.50
2023-03-21T03:31:55.440Z,14.80
2023-03-21T03:34:38.456Z,18.30
2023-03-21T03:37:15.151Z,15.90
2023-03-21T03:40:10.656Z,13.00
2023-03-21T03:43:04.163Z,13.40
2023-03-21T03:45:44.367Z,18.20
2023-03-21T03:48:19.053Z,15.40
2023-03-21T03:51:12.273Z,16.30
2023-03-21T03:53:58.375Z,28.30
2023-03-21T03:56:32.550Z,18.00
2023-03-21T03:59:09.866Z,16.80
2023-03-21T04:01:43.282Z,14.70
2023-03-21T04:04:14.162Z,19.40
2023-03-21T04:06:41.919Z,24.10
2023-03-21T04:09:19.161Z,23.60
2023-03-21T04:11:48.490Z,26.40
2023-03-21T04:14:15.820Z,18.30
2023-03-21T04:16:42.890Z,15.70
2023-03-21T04:19:10.019Z,17.40
2023-03-21T04:21:36.816Z,15.00
2023-03-21T04:24:03.944Z,37.70
2023-03-21T04:26:33.598Z,206.90
2023-03-21T04:29:03.870Z,108.00
2023-03-21T04:31:34.135Z,55.80
2023-03-21T04:34:02.966Z,48.40
2023-03-21T04:36:39.286Z,34.40
2023-03-21T04:39:12.580Z,143.60
2023-03-21T04:41:41.308Z,241.90
2023-03-21T04:44:09.175Z,136.40
2023-03-21T04:46:36.578Z,116.40
2023-03-21T04:49:04.087Z,207.40
2023-03-21T04:51:31.145Z,129.20
2023-03-21T04:53:57.984Z,63.70
2023-03-21T04:56:32.897Z,74.80
2023-03-21T04:59:08.966Z,153.60
2023-03-21T05:01:35.735Z,102.50
2023-03-21T05:04:05.118Z,70.90
2023-03-21T05:06:32.337Z,63.70
2023-03-21T05:09:01.806Z,85.50
2023-03-21T05:11:31.119Z,78.80
2023-03-21T05:14:01.528Z,118.30
2023-03-21T05:16:33.591Z,175.30
2023-03-21T05:19:05.544Z,49.90
2023-03-21T05:21:42.202Z,22.90
2023-03-21T05:24:19.552Z,20.50
2023-03-21T05:26:50.765Z,57.70
2023-03-21T05:29:19.075Z,83.10
2023-03-21T05:31:46.613Z,114.50
2023-03-21T05:34:14.430Z,78.80
2023-03-21T05:36:41.563Z,57.10
2023-03-21T05:39:08.409Z,109.10
2023-03-21T05:41:35.484Z,82.20
2023-03-21T05:44:02.262Z,44.10
2023-03-21T05:46:29.132Z,83.80
2023-03-21T05:48:56.121Z,106.30
2023-03-21T05:51:23.268Z,77.40
2023-03-21T05:53:50.600Z,44.20
2023-03-21T05:56:17.825Z,28.70
2023-03-21T05:58:45.018Z,22.40
2023-03-21T06:01:12.052Z,38.20
2023-03-21T06:03:38.957Z,46.40
2023-03-21T06:06:07.091Z,71.70
2023-03-21T06:08:33.988Z,62.80
2023-03-21T06:11:01.260Z,39.30
2023-03-21T06:13:28.146Z,70.90
2023-03-21T06:15:55.061Z,63.90
2023-03-21T06:18:22.489Z,52.10
2023-03-21T06:20:49.498Z,51.90
2023-03-21T06:23:16.529Z,51.90
2023-03-21T06:25:43.708Z,61.60
2023-03-21T06:28:10.947Z,64.80
2023-03-21T06:30:38.206Z,50.50
2023-03-21T06:33:05.073Z,57.30
2023-03-21T06:35:32.453Z,73.30
2023-03-21T06:38:00.098Z,45.00
2023-03-21T06:40:27.413Z,75.30
2023-03-21T06:42:54.157Z,60.40
2023-03-21T06:45:21.432Z,65.50
2023-03-21T06:47:48.377Z,49.80
2023-03-21T06:50:15.896Z,27.90
2023-03-21T06:52:42.832Z,23.10
2023-03-21T06:55:10.207Z,22.90
2023-03-21T06:57:37.417Z,22.80
2023-03-21T07:00:05.850Z,25.00
2023-03-21T07:02:32.928Z,37.10
2023-03-21T07:04:59.976Z,24.60
2023-03-21T07:07:27.979Z,26.60
2023-03-21T07:09:54.924Z,27.50
2023-03-21T07:12:23.384Z,26.80
2023-03-21T07:14:50.518Z,28.10
2023-03-21T07:17:17.589Z,30.20
2023-03-21T07:19:44.952Z,28.60
2023-03-21T07:22:12.128Z,28.80
2023-03-21T07:24:39.093Z,27.60
2023-03-21T07:27:05.996Z,28.50
2023-03-21T07:29:32.929Z,30.00
2023-03-21T07:31:59.852Z,35.70
2023-03-21T07:34:31.900Z,31.00
2023-03-21T07:36:59.105Z,29.20
2023-03-21T07:39:27.350Z,31.20
2023-03-21T07:41:57.649Z,34.30
2023-03-21T07:44:25.175Z,32.70
2023-03-21T07:46:52.042Z,33.50
2023-03-21T07:49:18.926Z,31.80
2023-03-21T07:51:45.821Z,36.60
2023-03-21T07:54:12.688Z,33.90
2023-03-21T07:56:39.682Z,34.90
2023-03-21T07:59:06.535Z,37.00
2023-03-21T08:01:33.412Z,32.50
2023-03-21T08:04:00.296Z,28.70
2023-03-21T08:06:29.574Z,30.40
2023-03-21T08:08:56.523Z,31.30
2023-03-21T08:11:24.937Z,28.00
2023-03-21T08:13:51.879Z,29.20
2023-03-21T08:16:18.836Z,26.80
2023-03-21T08:18:45.724Z,28.80
2023-03-21T08:21:12.603Z,29.60
2023-03-21T08:23:39.626Z,27.80
2023-03-21T08:26:08.113Z,31.50
2023-03-21T08:28:36.869Z,32.10
2023-03-21T08:31:13.256Z,26.10
2023-03-21T08:33:40.542Z,25.00
2023-03-21T08:36:08.007Z,27.60
2023-03-21T08:38:34.934Z,26.90
2023-03-21T08:41:02.285Z,26.80
2023-03-21T08:43:30.098Z,23.90
2023-03-21T08:45:57.335Z,26.70
2023-03-21T08:48:24.393Z,27.00
2023-03-21T08:50:51.799Z,31.90
2023-03-21T08:53:18.747Z,27.10
2023-03-21T08:55:45.889Z,26.10
2023-03-21T08:58:12.953Z,27.30
2023-03-21T09:00:39.892Z,23.50
2023-03-21T09:03:06.776Z,25.80
2023-03-21T09:05:34.055Z,25.30
2023-03-21T09:08:01.982Z,21.90
2023-03-21T09:10:29.209Z,22.20
2023-03-21T09:13:12.300Z,22.90
2023-03-21T09:15:43.264Z,25.60
2023-03-21T09:21:04.874Z,24.60
2023-03-21T09:23:35.474Z,27.20
2023-03-21T09:26:06.297Z,26.20
2023-03-21T09:28:47.889Z,26.80
2023-03-21T09:31:26.761Z,28.90
2023-03-21T09:34:02.361Z,29.80
2023-03-21T09:36:32.447Z,32.00
2023-03-21T09:38:59.914Z,32.60
2023-03-21T09:41:30.074Z,34.70
2023-03-21T09:44:03.993Z,32.70
2023-03-21T09:46:46.316Z,29.40
2023-03-21T09:49:22.281Z,34.30
2023-03-21T09:51:54.709Z,33.70
2023-03-21T09:54:29.977Z,30.60
2023-03-21T09:57:01.736Z,35.10
2023-03-21T09:59:42.373Z,29.80
2023-03-21T10:02:36.359Z,31.90
2023-03-21T10:05:13.622Z,33.70
2023-03-21T10:07:49.274Z,32.30
2023-03-21T10:10:23.091Z,29.60
2023-03-21T10:12:53.082Z,33.30
2023-03-21T10:15:23.650Z,30.40
2023-03-21T10:17:58.756Z,33.50
2023-03-21T10:20:27.189Z,27.80
2023-03-21T10:22:57.084Z,29.10
2023-03-21T10:25:38.469Z,30.60
2023-03-21T10:28:09.436Z,31.50
2023-03-21T10:30:44.939Z,34.70
2023-03-21T10:33:17.616Z,30.10
2023-03-21T10:35:50.333Z,33.30
2023-03-21T10:38:21.748Z,33.70
2023-03-21T10:40:48.798Z,33.40
2023-03-21T10:43:27.807Z,33.10
2023-03-21T10:45:56.819Z,35.60
2023-03-21T10:48:26.030Z,33.20
2023-03-21T10:50:56.842Z,29.70
2023-03-21T10:53:29.514Z,32.10
2023-03-21T10:56:00.859Z,35.00
2023-03-21T10:58:35.494Z,35.80
2023-03-21T11:01:10.894Z,38.30
2023-03-21T11:03:43.845Z,34.80
2023-03-21T11:06:33.242Z,40.10
2023-03-21T11:09:14.212Z,39.60
2023-03-21T11:14:26.642Z,37.30
2023-03-21T11:16:53.877Z,33.40
2023-03-21T11:19:32.707Z,35.60
2023-03-21T11:22:05.735Z,36.70
2023-03-21T11:24:34.366Z,33.50
2023-03-21T11:27:09.419Z,37.70
2023-03-21T11:29:40.868Z,38.00
2023-03-21T11:32:31.801Z,38.30
2023-03-21T11:35:41.046Z,38.20
2023-03-21T11:38:32.774Z,32.80
2023-03-21T11:41:03.303Z,32.50
2023-03-21T11:43:40.044Z,32.80
2023-03-21T11:46:13.531Z,31.90
2023-03-21T11:48:49.237Z,30.20
2023-03-21T11:51:41.854Z,32.10
2023-03-21T11:54:42.965Z,37.90
2023-03-21T12:00:05.370Z,35.90
2023-03-21T12:05:39.969Z,36.00
2023-03-21T12:08:13.891Z,32.90
2023-03-21T12:11:07.948Z,36.50
2023-03-21T12:13:58.809Z,37.30
2023-03-21T12:16:32.699Z,33.20
2023-03-21T12:19:13.295Z,34.20
2023-03-21T12:21:54.793Z,34.20
2023-03-21T12:24:34.633Z,33.90
2023-03-21T12:27:20.910Z,33.30
2023-03-21T12:30:13.542Z,35.40
2023-03-21T12:33:02.774Z,24.50
2023-03-21T12:35:40.414Z,38.80
2023-03-21T12:38:55.265Z,36.10
2023-03-21T12:41:37.958Z,31.60
2023-03-21T12:44:11.870Z,25.70
2023-03-21T12:46:45.932Z,25.00
2023-03-21T12:49:25.140Z,24.80
2023-03-21T12:52:00.132Z,23.70
2023-03-21T12:54:58.570Z,22.80
2023-03-21T12:57:38.246Z,22.30
2023-03-21T13:00:28.989Z,25.10
2023-03-21T13:03:03.180Z,23.00
2023-03-21T13:06:07.221Z,24.00
2023-03-21T13:08:39.984Z,22.10
2023-03-21T13:11:08.851Z,20.10
2023-03-21T13:13:49.965Z,24.40
2023-03-21T13:16:30.644Z,23.60
2023-03-21T13:19:21.320Z,22.80
2023-03-21T13:21:51.162Z,23.40
2023-03-21T13:24:40.438Z,21.40
2023-03-21T13:27:29.805Z,19.30
2023-03-21T13:30:01.802Z,20.10
2023-03-21T13:32:43.465Z,17.70
2023-03-21T13:35:33.014Z,22.50
2023-03-21T13:38:22.903Z,22.50
2023-03-21T13:41:14.628Z,23.50
2023-03-21T13:43:46.292Z,25.70
2023-03-21T13:46:26.990Z,27.00
2023-03-21T13:48:58.744Z,23.80
2023-03-21T13:51:54.339Z,26.40
2023-03-21T13:54:42.943Z,30.40
2023-03-21T13:57:23.414Z,33.90
2023-03-21T13:59:50.373Z,30.40
2023-03-21T14:02:27.643Z,29.30
2023-03-21T14:05:05.715Z,32.70
2023-03-21T14:07:41.659Z,35.70
2023-03-21T14:10:37.590Z,30.10
2023-03-21T14:13:11.124Z,30.00
2023-03-21T14:15:55.029Z,30.70
2023-03-21T14:18:51.868Z,28.70
2023-03-21T14:21:23.558Z,29.80
2023-03-21T14:24:03.990Z,30.20
2023-03-21T14:26:38.153Z,31.80
2023-03-21T14:29:23.013Z,28.40
2023-03-21T14:31:53.978Z,25.10
2023-03-21T14:34:23.261Z,28.60
2023-03-21T14:36:57.540Z,26.60
2023-03-21T14:39:33.573Z,29.50
2023-03-21T14:42:05.585Z,27.70
2023-03-21T14:44:53.460Z,27.70
2023-03-21T14:47:29.009Z,27.80
2023-03-21T14:49:57.787Z,29.00
2023-03-21T14:52:35.013Z,30.40
2023-03-21T14:55:06.259Z,35.90
2023-03-21T14:57:33.957Z,32.70
2023-03-21T15:00:13.842Z,33.40
2023-03-21T15:02:46.347Z,38.10
2023-03-21T15:05:34.928Z,31.10
2023-03-21T15:08:18.650Z,29.30
2023-03-21T15:11:08.679Z,27.60
2023-03-21T15:13:52.871Z,28.20
2023-03-21T15:16:20.981Z,28.90
2023-03-21T15:18:48.646Z,30.80
2023-03-21T15:21:27.048Z,29.30
2023-03-21T15:24:03.288Z,29.00
2023-03-21T15:26:32.293Z,27.10
2023-03-21T15:29:00.972Z,24.40
2023-03-21T15:31:36.965Z,27.70
2023-03-21T15:34:05.372Z,27.90
2023-03-21T15:36:40.156Z,29.90
2023-03-21T15:39:13.111Z,31.50
2023-03-21T15:41:43.507Z,24.90
2023-03-21T15:44:10.475Z,31.20
2023-03-21T15:46:46.612Z,28.80
2023-03-21T15:49:16.680Z,33.70
2023-03-21T15:51:54.176Z,29.50
2023-03-21T15:54:34.377Z,24.60
2023-03-21T15:57:09.836Z,26.90
2023-03-21T15:59:43.052Z,25.60
2023-03-21T16:02:19.660Z,28.10
2023-03-21T16:05:20.566Z,29.20
2023-03-21T16:07:49.081Z,28.20
2023-03-21T16:10:31.955Z,26.30
2023-03-21T16:12:59.603Z,27.40
2023-03-21T16:15:27.361Z,30.40
2023-03-21T16:18:04.055Z,29.00
2023-03-21T16:20:42.803Z,27.50
2023-03-21T16:23:12.544Z,36.70
2023-03-21T16:25:40.066Z,29.80
2023-03-21T16:28:19.969Z,32.40
2023-03-21T16:30:46.862Z,35.30
2023-03-21T16:33:14.157Z,34.10
2023-03-21T16:35:41.708Z,32.30
2023-03-21T16:38:12.822Z,50.30
2023-03-21T16:40:41.951Z,48.80
2023-03-21T16:43:09.814Z,37.40
2023-03-21T16:45:37.496Z,34.80
2023-03-21T16:48:04.742Z,49.60
2023-03-21T16:50:35.065Z,55.80
2023-03-21T16:53:02.805Z,34.30
2023-03-21T16:55:33.234Z,39.70
2023-03-21T16:58:00.805Z,40.40
2023-03-21T17:00:29.460Z,39.20
2023-03-21T17:02:59.639Z,48.40
2023-03-21T17:05:30.585Z,43.90
2023-03-21T17:07:57.988Z,40.40
2023-03-21T17:10:28.080Z,39.40
2023-03-21T17:12:55.476Z,39.70
2023-03-21T17:15:22.727Z,37.30
2023-03-21T17:17:50.697Z,37.70
2023-03-21T17:20:17.987Z,37.50
2023-03-21T17:22:45.663Z,38.60
2023-03-21T17:25:13.465Z,42.10
2023-03-21T17:27:41.562Z,40.30
2023-03-21T17:30:21.919Z,47.60
2023-03-21T17:32:50.681Z,57.40
2023-03-21T17:35:18.680Z,62.10
2023-03-21T17:37:52.629Z,61.30
2023-03-21T17:40:24.001Z,80.40
2023-03-21T17:42:52.497Z,74.30
2023-03-21T17:45:19.816Z,71.10
2023-03-21T17:47:47.538Z,75.50
2023-03-21T17:50:16.658Z,109.10
2023-03-21T17:52:43.919Z,145.00
2023-03-21T17:55:11.163Z,78.20
2023-03-21T17:57:38.489Z,87.20
2023-03-21T18:00:12.859Z,90.20
2023-03-21T18:02:40.929Z,92.40
2023-03-21T18:05:09.958Z,101.60
2023-03-21T18:08:07.955Z,89.30
2023-03-21T18:10:27.245Z,86.20
2023-03-21T18:12:58.677Z,86.10
2023-03-21T18:15:30.062Z,83.30
2023-03-21T18:17:58.634Z,79.70
2023-03-21T18:20:49.945Z,90.00
2023-03-21T18:23:16.440Z,88.40
2023-03-21T18:25:43.486Z,95.50
2023-03-21T18:28:12.456Z,105.00
2023-03-21T18:31:05.418Z,94.10
2023-03-21T18:33:28.708Z,95.00
2023-03-21T18:35:59.866Z,96.30
2023-03-21T18:38:33.474Z,96.50
2023-03-21T18:41:00.404Z,96.20
2023-03-21T18:46:16.113Z,95.50
2023-03-21T18:48:43.187Z,96.90
2023-03-21T18:51:10.406Z,94.50
2023-03-21T18:53:37.649Z,97.80
2023-03-21T18:56:09.826Z,88.20
2023-03-21T18:58:37.603Z,90.80
2023-03-21T19:01:05.353Z,106.00
2023-03-21T19:03:37.081Z,102.30
2023-03-21T19:06:06.795Z,100.80
2023-03-21T19:08:41.804Z,100.00
2023-03-21T19:11:10.952Z,101.60
2023-03-21T19:13:38.413Z,107.00
2023-03-21T19:16:05.682Z,106.40
2023-03-21T19:18:52.088Z,104.10
2023-03-21T19:21:21.931Z,107.50
2023-03-21T19:24:23.034Z,113.10
2023-03-21T19:26:36.938Z,107.30
2023-03-21T19:29:04.167Z,106.30
2023-03-21T19:31:31.737Z,109.20
2023-03-21T19:33:59.378Z,103.10
2023-03-21T19:36:27.029Z,100.40
2023-03-21T19:38:54.491Z,99.00
2023-03-21T19:41:21.500Z,97.90
2023-03-21T19:43:54.867Z,113.50
2023-03-21T19:46:25.665Z,111.10
2023-03-21T19:48:56.570Z,117.00
2023-03-21T19:51:29.395Z,134.80
2023-03-21T19:53:57.984Z,143.50
2023-03-21T19:56:27.404Z,142.90
2023-03-21T19:58:58.405Z,148.70
2023-03-21T20:01:26.545Z,152.60
2023-03-21T20:03:54.572Z,151.10
2023-03-21T20:06:25.448Z,133.10
2023-03-21T20:11:41.248Z,159.10
2023-03-21T20:14:08.451Z,154.60
2023-03-21T20:16:37.122Z,199.80
2023-03-21T20:19:06.351Z,154.50
2023-03-21T20:21:45.228Z,140.60
2023-03-21T20:24:15.021Z,160.40
2023-03-21T20:26:42.646Z,150.20
2023-03-21T20:31:57.397Z,169.90
2023-03-21T20:34:24.304Z,1029.40
2023-03-21T20:36:51.236Z,285.40
2023-03-21T20:39:18.175Z,345.70
2023-03-21T20:41:45.051Z,362.30
2023-03-21T20:44:55.961Z,452.30
2023-03-21T20:47:00.434Z,335.60
2023-03-21T20:49:28.470Z,166.70
2023-03-21T20:54:43.870Z,345.70
2023-03-21T20:57:11.079Z,388.70
2023-03-21T20:59:38.844Z,398.40
2023-03-21T21:02:05.977Z,356.40
2023-03-21T21:05:15.638Z,203.80
2023-03-21T21:07:22.288Z,148.70
2023-03-21T21:09:50.386Z,153.90
2023-03-21T21:12:19.601Z,149.60
2023-03-21T21:14:48.799Z,157.60
2023-03-21T21:17:35.219Z,129.60
2023-03-21T21:20:31.084Z,116.70
2023-03-21T21:23:00.088Z,95.90
2023-03-21T21:25:29.428Z,108.70
2023-03-21T21:27:56.493Z,98.60
2023-03-21T21:30:24.057Z,103.30
2023-03-21T21:32:50.856Z,100.00
2023-03-21T21:35:19.875Z,106.30
2023-03-21T21:37:46.760Z,105.50
2023-03-21T21:40:15.940Z,101.10
2023-03-21T21:42:44.214Z,101.30
2023-03-21T21:45:13.427Z,95.20
2023-03-21T21:47:40.778Z,89.00
2023-03-21T21:50:08.464Z,100.70
2023-03-21T21:52:36.043Z,122.40
2023-03-21T21:55:04.491Z,112.20
2023-03-21T21:57:34.774Z,120.90
2023-03-21T22:00:05.638Z,106.10
2023-03-21T22:02:32.455Z,95.10
2023-03-21T22:04:59.370Z,108.30
2023-03-21T22:07:27.715Z,109.50
2023-03-21T22:09:55.327Z,118.40
2023-03-21T22:12:22.188Z,136.30
2023-03-21T22:14:49.050Z,128.50
2023-03-21T22:17:15.969Z,128.20
2023-03-21T22:19:46.225Z,124.90
2023-03-21T22:22:19.648Z,107.00
2023-03-21T22:24:46.805Z,124.90
2023-03-21T22:27:13.704Z,121.00
2023-03-21T22:29:40.634Z,109.60
2023-03-21T22:32:07.470Z,108.80
2023-03-21T22:34:34.708Z,98.00
2023-03-21T22:37:02.888Z,99.20
2023-03-21T22:39:29.759Z,114.90
2023-03-21T22:42:04.926Z,102.20
2023-03-21T22:44:36.295Z,91.40
2023-03-21T22:47:05.528Z,81.80
2023-03-21T22:49:33.262Z,77.80
2023-03-21T22:52:01.471Z,69.50
2023-03-21T22:54:28.293Z,68.00
2023-03-21T22:56:55.647Z,56.20
2023-03-21T22:59:22.982Z,81.70
2023-03-21T23:01:50.628Z,85.90
2023-03-21T23:04:18.593Z,98.10
2023-03-21T23:06:46.614Z,80.10
2023-03-21T23:09:13.585Z,87.70
2023-03-21T23:11:41.223Z,70.00
2023-03-21T23:14:09.022Z,79.80
2023-03-21T23:16:38.528Z,86.20
2023-03-21T23:19:06.030Z,80.90
2023-03-21T23:21:34.799Z,87.70
2023-03-21T23:24:01.660Z,76.80
2023-03-21T23:26:29.174Z,68.50
2023-03-21T23:28:56.116Z,76.30
2023-03-21T23:31:26.210Z,73.70
2023-03-21T23:33:54.256Z,84.50
2023-03-21T23:36:22.998Z,73.20
2023-03-21T23:38:50.684Z,79.10
2023-03-21T23:41:21.533Z,77.70
2023-03-21T23:43:49.184Z,83.50
2023-03-21T23:46:17.436Z,86.80
2023-03-21T23:48:45.982Z,89.80
2023-03-21T23:51:16.216Z,113.40
2023-03-21T23:53:44.615Z,98.20
2023-03-21T23:56:13.861Z,119.80
2023-03-21T23:58:40.866Z,84.60
